sensor_id;sensor_type;location;lat;lon;timestamp;pressure;altitude;pressure_sealevel;temperature;humidity
9672;BME280;4874;43.568;27.824;2023-02-01T18:41:12;98856.47;;;4.54;100.00
9672;BME280;4874;43.568;27.824;2023-02-01T18:43:41;98749.84;;;6.74;100.00
9672;BME280;4874;43.568;27.824;2023-02-01T18:46:10;98844.28;;;8.26;100.00
9672;BME280;4874;43.568;27.824;2023-02-01T18:48:37;98835.38;;;6.28;100.00
9672;BME280;4874;43.568;27.824;2023-02-01T18:51:04;98842.72;;;5.22;100.00
9672;BME280;4874;43.568;27.824;2023-02-01T18:53:30;98855.03;;;4.87;100.00
9672;BME280;4874;43.568;27.824;2023-02-01T18:55:57;98855.97;;;4.86;100.00
9672;BME280;4874;43.568;27.824;2023-02-01T18:58:24;98849.31;;;4.69;100.00
9672;BME280;4874;43.568;27.824;2023-02-01T19:00:53;98846.91;;;4.66;100.00
9672;BME280;4874;43.568;27.824;2023-02-01T19:03:21;98855.19;;;4.72;100.00
9672;BME280;4874;43.568;27.824;2023-02-01T19:05:54;98854.97;;;4.63;100.00
9672;BME280;4874;43.568;27.824;2023-02-01T19:08:23;98854.38;;;4.59;100.00
9672;BME280;4874;43.568;27.824;2023-02-01T19:10:51;98859.81;;;4.69;100.00
9672;BME280;4874;43.568;27.824;2023-02-01T19:13:18;98858.81;;;4.46;100.00
9672;BME280;4874;43.568;27.824;2023-02-01T19:15:48;98862.94;;;4.50;100.00
9672;BME280;4874;43.568;27.824;2023-02-01T19:18:15;98858.19;;;4.55;100.00
9672;BME280;4874;43.568;27.824;2023-02-01T19:20:46;98864.00;;;4.35;100.00
9672;BME280;4874;43.568;27.824;2023-02-01T19:23:18;98865.50;;;4.14;100.00
9672;BME280;4874;43.568;27.824;2023-02-01T19:25:46;98872.47;;;4.51;100.00
9672;BME280;4874;43.568;27.824;2023-02-01T19:28:13;98860.84;;;4.30;100.00
9672;BME280;4874;43.568;27.824;2023-02-01T19:30:40;98869.41;;;4.09;100.00
9672;BME280;4874;43.568;27.824;2023-02-01T19:33:06;98859.53;;;4.25;100.00
9672;BME280;4874;43.568;27.824;2023-02-01T19:35:33;98865.81;;;4.22;100.00
9672;BME280;4874;43.568;27.824;2023-02-01T19:37:59;98856.25;;;4.21;100.00
9672;BME280;4874;43.568;27.824;2023-02-01T19:40:26;98865.06;;;4.20;100.00
9672;BME280;4874;43.568;27.824;2023-02-01T19:42:53;98858.22;;;4.30;100.00
9672;BME280;4874;43.568;27.824;2023-02-01T19:45:20;98851.75;;;4.23;100.00
9672;BME280;4874;43.568;27.824;2023-02-01T19:47:48;98849.81;;;4.25;100.00
9672;BME280;4874;43.568;27.824;2023-02-01T19:50:15;98854.16;;;4.26;100.00
9672;BME280;4874;43.568;27.824;2023-02-01T19:52:42;98852.06;;;4.06;100.00
9672;BME280;4874;43.568;27.824;2023-02-01T19:55:11;98848.38;;;4.09;100.00
9672;BME280;4874;43.568;27.824;2023-02-01T19:57:37;98846.28;;;4.14;100.00
9672;BME280;4874;43.568;27.824;2023-02-01T20:00:05;98843.72;;;6.77;100.00
9672;BME280;4874;43.568;27.824;2023-02-01T20:02:31;98838.72;;;6.52;100.00
9672;BME280;4874;43.568;27.824;2023-02-01T20:04:58;98846.81;;;4.55;100.00
9672;BME280;4874;43.568;27.824;2023-02-01T20:07:24;98844.88;;;4.33;100.00
9672;BME280;4874;43.568;27.824;2023-02-01T20:09:51;98842.72;;;4.15;100.00
9672;BME280;4874;43.568;27.824;2023-02-01T20:12:18;98848.69;;;4.17;100.00
9672;BME280;4874;43.568;27.824;2023-02-01T20:14:44;98853.25;;;4.02;100.00
9672;BME280;4874;43.568;27.824;2023-02-01T20:17:14;98841.78;;;4.03;100.00
9672;BME280;4874;43.568;27.824;2023-02-01T20:19:41;98852.06;;;4.06;100.00
9672;BME280;4874;43.568;27.824;2023-02-01T20:22:08;98844.38;;;4.16;100.00
9672;BME280;4874;43.568;27.824;2023-02-01T20:24:34;98846.56;;;4.22;100.00
9672;BME280;4874;43.568;27.824;2023-02-01T20:27:01;98850.50;;;4.04;100.00
9672;BME280;4874;43.568;27.824;2023-02-01T20:29:28;98844.19;;;4.06;100.00
9672;BME280;4874;43.568;27.824;2023-02-01T20:31:54;98845.56;;;3.99;100.00
9672;BME280;4874;43.568;27.824;2023-02-01T20:34:21;98863.94;;;4.12;100.00
9672;BME280;4874;43.568;27.824;2023-02-01T20:36:47;98858.13;;;4.32;100.00
9672;BME280;4874;43.568;27.824;2023-02-01T20:39:14;98857.06;;;4.22;100.00
9672;BME280;4874;43.568;27.824;2023-02-01T20:41:41;98866.78;;;4.21;100.00
9672;BME280;4874;43.568;27.824;2023-02-01T20:44:08;98867.09;;;4.04;100.00
9672;BME280;4874;43.568;27.824;2023-02-01T20:46:35;98868.59;;;3.96;100.00
9672;BME280;4874;43.568;27.824;2023-02-01T20:49:02;98863.97;;;3.99;100.00
9672;BME280;4874;43.568;27.824;2023-02-01T20:51:28;98863.69;;;4.40;100.00
9672;BME280;4874;43.568;27.824;2023-02-01T20:53:55;98864.00;;;9.78;100.00
9672;BME280;4874;43.568;27.824;2023-02-01T20:56:21;98859.47;;;6.12;100.00
9672;BME280;4874;43.568;27.824;2023-02-01T20:58:48;98864.34;;;4.91;100.00
9672;BME280;4874;43.568;27.824;2023-02-01T21:01:15;98858.94;;;4.45;100.00
9672;BME280;4874;43.568;27.824;2023-02-01T21:03:41;98872.22;;;4.18;100.00
9672;BME280;4874;43.568;27.824;2023-02-01T21:06:09;98876.25;;;4.11;100.00
9672;BME280;4874;43.568;27.824;2023-02-01T21:08:36;98874.75;;;4.07;100.00
9672;BME280;4874;43.568;27.824;2023-02-01T21:11:04;98866.78;;;3.96;100.00
9672;BME280;4874;43.568;27.824;2023-02-01T21:13:31;98873.47;;;4.25;100.00
9672;BME280;4874;43.568;27.824;2023-02-01T21:16:01;98877.81;;;4.14;100.00
9672;BME280;4874;43.568;27.824;2023-02-01T21:18:30;98875.81;;;4.17;100.00
9672;BME280;4874;43.568;27.824;2023-02-01T21:21:02;98875.72;;;3.94;100.00
9672;BME280;4874;43.568;27.824;2023-02-01T21:23:28;98877.16;;;3.73;100.00
9672;BME280;4874;43.568;27.824;2023-02-01T21:25:59;98862.16;;;3.49;100.00
9672;BME280;4874;43.568;27.824;2023-02-01T21:28:26;98865.31;;;3.67;100.00
9672;BME280;4874;43.568;27.824;2023-02-01T21:30:52;98865.81;;;3.47;100.00
9672;BME280;4874;43.568;27.824;2023-02-01T21:33:19;98877.38;;;3.57;100.00
9672;BME280;4874;43.568;27.824;2023-02-01T21:35:48;98866.25;;;3.66;100.00
9672;BME280;4874;43.568;27.824;2023-02-01T21:38:14;98875.31;;;3.87;100.00
9672;BME280;4874;43.568;27.824;2023-02-01T21:40:41;98863.53;;;3.80;100.00
9672;BME280;4874;43.568;27.824;2023-02-01T21:43:08;98865.00;;;3.72;100.00
9672;BME280;4874;43.568;27.824;2023-02-01T21:45:34;98860.81;;;3.82;100.00
9672;BME280;4874;43.568;27.824;2023-02-01T21:48:03;98857.75;;;3.63;100.00
9672;BME280;4874;43.568;27.824;2023-02-01T21:50:30;98856.72;;;3.65;100.00
9672;BME280;4874;43.568;27.824;2023-02-01T21:52:58;98843.88;;;3.60;100.00
9672;BME280;4874;43.568;27.824;2023-02-01T21:55:24;98841.06;;;3.89;100.00
9672;BME280;4874;43.568;27.824;2023-02-01T21:57:51;98842.31;;;3.83;100.00
9672;BME280;4874;43.568;27.824;2023-02-01T22:00:19;98834.31;;;3.72;100.00
9672;BME280;4874;43.568;27.824;2023-02-01T22:02:46;98837.47;;;3.77;100.00
9672;BME280;4874;43.568;27.824;2023-02-01T22:05:12;98831.72;;;3.97;100.00
9672;BME280;4874;43.568;27.824;2023-02-01T22:07:40;98830.44;;;3.78;100.00
9672;BME280;4874;43.568;27.824;2023-02-01T22:10:06;98831.41;;;3.64;100.00
9672;BME280;4874;43.568;27.824;2023-02-01T22:12:33;98831.00;;;3.70;100.00
9672;BME280;4874;43.568;27.824;2023-02-01T22:14:59;98818.78;;;3.69;100.00
9672;BME280;4874;43.568;27.824;2023-02-01T22:17:26;98828.47;;;3.56;100.00
9672;BME280;4874;43.568;27.824;2023-02-01T22:19:52;98829.28;;;3.44;100.00
9672;BME280;4874;43.568;27.824;2023-02-01T22:22:19;98828.28;;;3.07;100.00
9672;BME280;4874;43.568;27.824;2023-02-01T22:24:45;98819.91;;;2.76;100.00
9672;BME280;4874;43.568;27.824;2023-02-01T22:27:13;98830.59;;;3.12;100.00
9672;BME280;4874;43.568;27.824;2023-02-01T22:29:40;98821.19;;;3.22;100.00
9672;BME280;4874;43.568;27.824;2023-02-01T22:32:07;98817.50;;;2.85;100.00
9672;BME280;4874;43.568;27.824;2023-02-01T22:34:33;98827.56;;;2.79;100.00
9672;BME280;4874;43.568;27.824;2023-02-01T22:37:00;98826.16;;;3.00;100.00
9672;BME280;4874;43.568;27.824;2023-02-01T22:39:27;98828.44;;;2.92;100.00
9672;BME280;4874;43.568;27.824;2023-02-01T22:41:53;98825.31;;;2.99;100.00
9672;BME280;4874;43.568;27.824;2023-02-01T22:44:20;98825.00;;;3.04;100.00
9672;BME280;4874;43.568;27.824;2023-02-01T22:46:46;98831.22;;;3.03;100.00
9672;BME280;4874;43.568;27.824;2023-02-01T22:49:13;98836.44;;;3.03;100.00
9672;BME280;4874;43.568;27.824;2023-02-01T22:51:40;98831.22;;;3.03;100.00
9672;BME280;4874;43.568;27.824;2023-02-01T22:54:09;98828.94;;;3.23;100.00
9672;BME280;4874;43.568;27.824;2023-02-01T22:56:40;98825.59;;;3.21;100.00
9672;BME280;4874;43.568;27.824;2023-02-01T22:59:09;98811.00;;;3.30;100.00
9672;BME280;4874;43.568;27.824;2023-02-01T23:01:36;98814.59;;;3.29;100.00
9672;BME280;4874;43.568;27.824;2023-02-01T23:04:04;98822.97;;;3.21;100.00
9672;BME280;4874;43.568;27.824;2023-02-01T23:06:31;98811.97;;;3.29;100.00
9672;BME280;4874;43.568;27.824;2023-02-01T23:09:04;98806.38;;;3.21;100.00
9672;BME280;4874;43.568;27.824;2023-02-01T23:11:31;98810.28;;;3.28;100.00
9672;BME280;4874;43.568;27.824;2023-02-01T23:13:58;98811.22;;;3.27;100.00
9672;BME280;4874;43.568;27.824;2023-02-01T23:16:24;98807.25;;;3.34;100.00
9672;BME280;4874;43.568;27.824;2023-02-01T23:18:51;98812.03;;;3.27;100.00
9672;BME280;4874;43.568;27.824;2023-02-01T23:21:19;98809.22;;;3.43;100.00
9672;BME280;4874;43.568;27.824;2023-02-01T23:23:47;98798.00;;;3.28;100.00
9672;BME280;4874;43.568;27.824;2023-02-01T23:26:14;98808.38;;;3.30;100.00
9672;BME280;4874;43.568;27.824;2023-02-01T23:28:41;98798.41;;;3.35;100.00
9672;BME280;4874;43.568;27.824;2023-02-01T23:31:08;98797.91;;;3.42;100.00
9672;BME280;4874;43.568;27.824;2023-02-01T23:33:35;98805.16;;;3.39;100.00
9672;BME280;4874;43.568;27.824;2023-02-01T23:36:03;98795.41;;;3.41;100.00
9672;BME280;4874;43.568;27.824;2023-02-01T23:38:30;98806.19;;;3.36;100.00
9672;BME280;4874;43.568;27.824;2023-02-01T23:40:58;98809.97;;;3.32;100.00
9672;BME280;4874;43.568;27.824;2023-02-01T23:43:26;98805.75;;;3.30;100.00
9672;BME280;4874;43.568;27.824;2023-02-01T23:46:11;98799.19;;;3.49;100.00
9672;BME280;4874;43.568;27.824;2023-02-01T23:48:38;98801.91;;;3.35;100.00
9672;BME280;4874;43.568;27.824;2023-02-01T23:51:05;98793.69;;;3.40;100.00
9672;BME280;4874;43.568;27.824;2023-02-01T23:53:32;98795.91;;;3.33;100.00
9672;BME280;4874;43.568;27.824;2023-02-01T23:55:58;98805.66;;;3.31;100.00
9672;BME280;4874;43.568;27.824;2023-02-01T23:58:25;98796.63;;;3.48;100.00
